Accueil
METAR-TAF:

METAR-TAF

Aéroports :

Alton / St. Louis, Illinois, États-Unis

latitude: 38-54N, longitude: 090-03W, altitude: 166 m

Observation

Le bulletin a été fait il y a 22 minutes, à 21:50 UTC
Vent 10 kt de est/sud-est avec des rafales jusqu'à 15 kt
Température 12°C
Humidité 67%
Pression 1019 hPa
Visibilité: 16.1 km
Nuages fragmentés à une hauteur de 15000 ft

METAR: KALN 202150Z 12010G15KT 10SM BKN150 12/06 A3008

Heure: 16:12 (22:12 UTC)


TAF: absent

Observations et prévisions météorologiques de plus de 4000 aéroports (messages METAR et TAF).

Les stations disponibles sont représentées par des disques jaunes et rouges sur la carte.

Passer la souris dessus pour voir le nom de la station.

Cliquer dessus pour voir les observations et prévisions météorologiques.

Pour changer de carte: cliquez sur les boutons verts avec une croix noire pour zoomer, sur le bouton vert avec un tiret pour effectuer un zoom arrière, ou sur les flèches vertes pour les cartes adjacentes.


METAR-TAF: